Time;durP1;ratioP1;P1;durP2;ratioP2;P2;SDS_P1;SDS_P2;PMS_P1;PMS_P2;Temp;Humidity;BMP_temperature;BMP_pressure;BME280_temperature;BME280_humidity;BME280_pressure;Samples;Min_cycle;Max_cycle;Signal;HPM_P1;HPM_P2
2021/06/07 00:02:09;;;;;;;0.70;0.40;;;23.10;55.40;;;;;;5039621;28;20440;-54
2021/06/07 00:04:36;;;;;;;0.38;0.25;;;23.00;55.30;;;;;;5036390;28;20099;-53
2021/06/07 00:07:06;;;;;;;0.30;0.30;;;23.00;55.30;;;;;;5036244;28;20432;-54
2021/06/07 00:09:34;;;;;;;0.50;0.50;;;23.00;55.30;;;;;;5051792;28;20170;-52
2021/06/07 00:12:07;;;;;;;0.63;0.32;;;23.00;55.30;;;;;;5056431;28;20538;-52
2021/06/07 00:14:35;;;;;;;0.50;0.40;;;23.00;55.30;;;;;;5045202;28;20069;-53
2021/06/07 00:17:04;;;;;;;0.40;0.40;;;23.00;55.30;;;;;;5046918;28;20045;-54
2021/06/07 00:19:34;;;;;;;0.38;0.38;;;23.00;55.30;;;;;;5055072;28;20037;-49
2021/06/07 00:22:02;;;;;;;0.43;0.40;;;23.00;55.30;;;;;;5047153;28;20046;-55
2021/06/07 00:24:30;;;;;;;0.65;0.40;;;23.00;55.30;;;;;;5046298;28;20083;-50
2021/06/07 00:26:57;;;;;;;0.20;0.20;;;23.00;55.30;;;;;;5053836;28;20049;-49
2021/06/07 00:29:24;;;;;;;0.40;0.40;;;23.10;55.40;;;;;;5050344;28;20390;-51
2021/06/07 00:31:51;;;;;;;0.38;0.38;;;23.00;55.40;;;;;;5042975;28;20106;-51
2021/06/07 00:34:18;;;;;;;0.95;0.50;;;23.00;55.40;;;;;;5051426;28;20053;-54
2021/06/07 00:36:46;;;;;;;0.57;0.40;;;23.00;55.40;;;;;;5041941;28;20045;-50
2021/06/07 00:39:15;;;;;;;0.60;0.30;;;23.00;55.40;;;;;;5054597;28;20049;-52
2021/06/07 00:41:46;;;;;;;0.40;0.40;;;23.00;55.40;;;;;;5056722;28;20102;-52
2021/06/07 00:44:16;;;;;;;0.30;0.30;;;23.00;55.40;;;;;;5053995;28;20087;-51
2021/06/07 00:46:44;;;;;;;0.47;0.38;;;23.00;55.40;;;;;;5038538;28;20052;-50
2021/06/07 00:49:11;;;;;;;0.30;0.30;;;23.00;55.40;;;;;;5037837;28;20059;-52
2021/06/07 00:51:40;;;;;;;0.40;0.40;;;23.00;55.40;;;;;;5054428;28;20057;-52
2021/06/07 00:54:09;;;;;;;0.40;0.22;;;23.00;55.40;;;;;;5036989;28;20501;-56
2021/06/07 00:56:37;;;;;;;0.35;0.35;;;23.00;55.40;;;;;;5036059;28;20045;-54
2021/06/07 00:59:04;;;;;;;0.40;0.30;;;23.00;55.40;;;;;;5036328;28;20049;-52
2021/06/07 01:01:32;;;;;;;0.30;0.30;;;23.00;55.40;;;;;;5037123;28;20387;-51
2021/06/07 01:04:00;;;;;;;0.38;0.35;;;23.00;55.40;;;;;;5054759;28;20044;-52
2021/06/07 01:06:29;;;;;;;0.30;0.30;;;23.00;55.40;;;;;;5061699;28;20075;-51
2021/06/07 01:08:57;;;;;;;1.05;0.40;;;23.00;55.40;;;;;;5055921;28;20049;-52
2021/06/07 01:11:25;;;;;;;0.30;0.30;;;23.00;55.40;;;;;;5056099;28;20421;-53
2021/06/07 01:13:53;;;;;;;0.40;0.40;;;23.00;55.40;;;;;;5055503;28;20045;-50
2021/06/07 01:16:21;;;;;;;0.57;0.50;;;23.00;55.40;;;;;;5055263;28;20048;-53
2021/06/07 01:18:49;;;;;;;0.35;0.35;;;23.00;55.40;;;;;;5054188;28;20101;-51
2021/06/07 01:21:22;;;;;;;0.47;0.30;;;23.00;55.50;;;;;;5053673;28;20049;-52
2021/06/07 01:23:52;;;;;;;0.40;0.30;;;23.00;55.40;;;;;;5055117;28;20086;-53
2021/06/07 01:26:22;;;;;;;0.30;0.30;;;23.00;55.50;;;;;;5053688;28;20495;-51
2021/06/07 01:28:50;;;;;;;0.30;0.30;;;23.00;55.40;;;;;;5055314;28;20150;-50
2021/06/07 01:31:19;;;;;;;0.50;0.40;;;23.00;55.50;;;;;;5053978;28;20090;-52
2021/06/07 01:33:51;;;;;;;0.50;0.40;;;23.00;55.50;;;;;;5046569;28;20053;-50
2021/06/07 01:36:18;;;;;;;0.40;0.32;;;23.00;56.00;;;;;;5043090;28;20048;-52
2021/06/07 01:38:47;;;;;;;0.40;0.40;;;23.00;55.50;;;;;;5053786;28;20131;-51
2021/06/07 01:41:17;;;;;;;0.40;0.40;;;23.00;55.50;;;;;;5069077;28;20041;-53
2021/06/07 01:43:46;;;;;;;0.40;0.40;;;23.00;55.50;;;;;;5053954;28;20468;-50
2021/06/07 01:46:13;;;;;;;0.30;0.30;;;23.00;55.50;;;;;;5048601;28;20045;-51
2021/06/07 01:48:41;;;;;;;0.57;0.40;;;23.00;55.50;;;;;;5037379;28;20053;-50
2021/06/07 01:51:09;;;;;;;0.30;0.30;;;23.00;55.50;;;;;;5037341;28;20075;-51
2021/06/07 01:53:36;;;;;;;0.40;0.40;;;23.00;55.50;;;;;;5037862;28;20132;-49
2021/06/07 01:56:08;;;;;;;0.70;0.40;;;23.00;55.50;;;;;;5036795;28;20044;-51
2021/06/07 01:58:36;;;;;;;0.30;0.30;;;23.00;55.50;;;;;;5037753;28;20118;-54
2021/06/07 02:01:07;;;;;;;0.43;0.43;;;23.00;55.50;;;;;;5053180;28;20107;-55
2021/06/07 02:03:35;;;;;;;0.40;0.30;;;23.00;55.50;;;;;;5035712;28;20053;-54
2021/06/07 02:06:05;;;;;;;0.40;0.35;;;23.00;55.50;;;;;;5065252;28;20041;-50
2021/06/07 02:08:33;;;;;;;0.40;0.40;;;23.00;55.50;;;;;;5053100;28;20131;-50
2021/06/07 02:11:30;;;;;;;0.20;0.20;;;23.00;55.50;;;;;;5034250;28;20045;-54
2021/06/07 02:14:03;;;;;;;0.38;0.38;;;23.00;55.50;;;;;;5036751;28;20068;-54
2021/06/07 02:16:35;;;;;;;0.40;0.30;;;23.00;55.50;;;;;;5036409;28;20041;-49
2021/06/07 02:19:05;;;;;;;0.30;0.30;;;23.00;55.50;;;;;;5035971;28;20076;-52
2021/06/07 02:21:34;;;;;;;0.55;0.40;;;23.00;55.50;;;;;;5035529;28;20045;-55
2021/06/07 02:24:05;;;;;;;0.40;0.32;;;23.00;55.50;;;;;;5052694;28;20118;-50
2021/06/07 02:26:33;;;;;;;0.30;0.28;;;23.00;55.50;;;;;;5052270;28;20103;-49
2021/06/07 02:29:08;;;;;;;0.30;0.30;;;23.00;55.50;;;;;;5035809;28;20080;-53
2021/06/07 02:31:36;;;;;;;0.40;0.35;;;23.00;55.50;;;;;;5034933;28;20470;-52
2021/06/07 02:34:07;;;;;;;0.30;0.30;;;23.00;55.50;;;;;;5051865;28;20135;-51
2021/06/07 02:36:38;;;;;;;0.40;0.30;;;23.00;55.50;;;;;;5054015;28;20049;-52
2021/06/07 02:39:07;;;;;;;0.30;0.30;;;23.00;55.50;;;;;;5035067;28;20049;-50
2021/06/07 02:41:37;;;;;;;0.40;0.30;;;23.00;55.50;;;;;;5052251;28;20071;-49
2021/06/07 02:44:05;;;;;;;0.32;0.32;;;23.00;55.50;;;;;;5035756;28;20073;-50
2021/06/07 02:46:32;;;;;;;0.30;0.30;;;23.00;55.60;;;;;;5051695;28;20044;-50
2021/06/07 02:49:00;;;;;;;0.30;0.30;;;23.00;55.60;;;;;;5052633;28;20103;-53
2021/06/07 02:51:27;;;;;;;0.30;0.30;;;23.00;55.60;;;;;;5053574;28;20098;-50
2021/06/07 02:53:55;;;;;;;1.10;0.30;;;23.00;55.60;;;;;;5040278;28;20057;-52
2021/06/07 02:56:22;;;;;;;0.40;0.40;;;23.00;55.60;;;;;;5038361;28;20103;-51
2021/06/07 02:58:49;;;;;;;0.38;0.20;;;23.00;55.60;;;;;;5047014;28;20072;-53
2021/06/07 03:01:17;;;;;;;0.30;0.30;;;23.00;55.60;;;;;;5044988;28;20132;-51
2021/06/07 03:03:44;;;;;;;0.40;0.32;;;23.00;55.60;;;;;;5037159;28;20055;-51
2021/06/07 03:06:11;;;;;;;0.80;0.40;;;23.00;55.60;;;;;;5042297;28;20094;-50
2021/06/07 03:08:38;;;;;;;0.20;0.20;;;23.00;55.60;;;;;;5052348;28;20393;-52
2021/06/07 03:11:09;;;;;;;0.30;0.30;;;23.00;55.60;;;;;;5053345;28;20119;-51
2021/06/07 03:13:38;;;;;;;0.20;0.20;;;23.00;55.60;;;;;;5052252;28;20068;-50
2021/06/07 03:16:06;;;;;;;0.32;0.32;;;23.00;55.60;;;;;;5049997;28;20041;-52
2021/06/07 03:18:33;;;;;;;0.40;0.40;;;23.00;55.60;;;;;;5051030;28;20047;-52
2021/06/07 03:21:01;;;;;;;0.30;0.30;;;23.00;55.60;;;;;;5050876;28;20528;-53
2021/06/07 03:23:32;;;;;;;0.30;0.25;;;23.00;55.60;;;;;;5051884;28;20129;-55
2021/06/07 03:25:59;;;;;;;0.35;0.30;;;23.00;55.60;;;;;;5050703;28;20132;-54
2021/06/07 03:28:28;;;;;;;0.30;0.30;;;23.00;55.50;;;;;;5067507;28;20071;-52
2021/06/07 03:30:56;;;;;;;0.25;0.22;;;23.00;55.50;;;;;;5035415;28;20053;-54
2021/06/07 03:33:25;;;;;;;0.40;0.30;;;23.00;55.50;;;;;;5051700;28;20131;-54
2021/06/07 03:35:55;;;;;;;0.30;0.30;;;23.00;55.60;;;;;;5035345;28;20387;-52
2021/06/07 03:38:24;;;;;;;0.40;0.40;;;23.00;55.50;;;;;;5034307;28;20077;-55
2021/06/07 03:40:54;;;;;;;0.20;0.20;;;23.00;55.50;;;;;;5051170;28;20049;-55
2021/06/07 03:43:24;;;;;;;0.60;0.40;;;23.10;55.60;;;;;;5052273;28;20068;-54
2021/06/07 03:45:51;;;;;;;0.40;0.30;;;23.10;56.20;;;;;;5053640;28;20045;-54
2021/06/07 03:48:18;;;;;;;0.43;0.40;;;23.10;55.60;;;;;;5055654;28;20413;-50
2021/06/07 03:50:46;;;;;;;0.40;0.40;;;23.10;55.50;;;;;;5056764;28;20052;-49
2021/06/07 03:53:14;;;;;;;0.45;0.40;;;23.10;55.50;;;;;;5056551;28;20079;-54
2021/06/07 03:55:42;;;;;;;0.28;0.28;;;23.10;55.50;;;;;;5058579;28;20057;-53
2021/06/07 03:58:10;;;;;;;0.40;0.40;;;23.10;55.50;;;;;;5052396;28;20077;-54
2021/06/07 04:00:39;;;;;;;0.45;0.40;;;23.10;55.40;;;;;;5055665;28;20098;-54
2021/06/07 04:03:09;;;;;;;0.28;0.28;;;23.10;55.40;;;;;;5055807;28;20682;-55
2021/06/07 04:05:38;;;;;;;0.40;0.38;;;23.10;55.40;;;;;;5056225;28;20079;-53
2021/06/07 04:08:09;;;;;;;0.30;0.30;;;23.10;55.40;;;;;;5054195;28;20408;-55
2021/06/07 04:10:36;;;;;;;0.20;0.20;;;23.10;55.40;;;;;;5055258;28;20049;-50
2021/06/07 04:13:04;;;;;;;0.45;0.45;;;23.20;55.40;;;;;;5054292;28;20118;-50
2021/06/07 04:15:32;;;;;;;0.30;0.30;;;23.10;55.30;;;;;;5047467;28;20413;-52
2021/06/07 04:17:59;;;;;;;0.40;0.40;;;23.10;55.30;;;;;;5044569;28;20077;-51
2021/06/07 04:20:29;;;;;;;1.77;0.30;;;23.20;55.40;;;;;;5049592;28;20049;-49
2021/06/07 04:22:57;;;;;;;0.35;0.30;;;23.20;55.30;;;;;;5040021;28;20045;-52
2021/06/07 04:25:27;;;;;;;0.32;0.30;;;23.20;55.30;;;;;;5043074;28;20041;-52
2021/06/07 04:27:56;;;;;;;0.50;0.35;;;23.20;55.20;;;;;;5053706;28;20056;-56
2021/06/07 04:30:23;;;;;;;0.32;0.30;;;23.20;55.20;;;;;;5055972;28;20103;-58
2021/06/07 04:32:52;;;;;;;0.20;0.20;;;23.20;55.20;;;;;;5056261;28;20049;-50
2021/06/07 04:35:20;;;;;;;0.65;0.50;;;23.20;55.20;;;;;;5053318;28;20045;-56
2021/06/07 04:37:53;;;;;;;0.30;0.30;;;23.30;55.20;;;;;;5055671;28;20481;-53
2021/06/07 04:40:24;;;;;;;0.45;0.40;;;23.20;55.10;;;;;;5054681;28;20068;-54
2021/06/07 04:42:52;;;;;;;0.30;0.30;;;23.30;55.10;;;;;;5055978;28;20081;-53
2021/06/07 04:45:22;;;;;;;0.32;0.30;;;23.30;55.10;;;;;;5054712;28;20044;-53
2021/06/07 04:47:49;;;;;;;0.55;0.50;;;23.30;55.00;;;;;;5038396;28;20053;-50
2021/06/07 04:50:20;;;;;;;0.38;0.30;;;23.30;55.00;;;;;;5035941;28;20103;-53
2021/06/07 04:52:58;;;;;;;0.57;0.40;;;23.40;55.00;;;;;;5037530;28;20061;-50
2021/06/07 04:55:32;;;;;;;1.95;0.38;;;23.40;54.90;;;;;;5053989;28;20061;-49
2021/06/07 04:58:13;;;;;;;0.52;0.40;;;23.40;54.80;;;;;;5053128;28;20077;-53
2021/06/07 05:00:42;;;;;;;0.50;0.47;;;23.50;54.80;;;;;;5037962;28;20049;-51
2021/06/07 05:03:10;;;;;;;1.70;0.30;;;23.40;54.70;;;;;;5054790;28;20095;-51
2021/06/07 05:05:38;;;;;;;0.20;0.20;;;23.50;54.70;;;;;;5053732;28;20081;-51
2021/06/07 05:08:05;;;;;;;0.32;0.30;;;23.50;54.60;;;;;;5053938;28;20059;-52
2021/06/07 05:10:33;;;;;;;0.52;0.45;;;23.50;54.50;;;;;;5053161;28;20052;-50
2021/06/07 05:13:01;;;;;;;0.20;0.20;;;23.60;54.50;;;;;;5052925;28;20044;-49
2021/06/07 05:15:29;;;;;;;0.20;0.20;;;23.60;54.50;;;;;;5052825;28;20584;-53
2021/06/07 05:17:57;;;;;;;0.30;0.25;;;23.60;54.50;;;;;;5039879;28;20119;-49
2021/06/07 05:20:27;;;;;;;0.30;0.30;;;23.60;54.40;;;;;;5037886;28;20412;-52
2021/06/07 05:22:57;;;;;;;0.32;0.30;;;23.70;54.40;;;;;;5037471;28;20045;-49
2021/06/07 05:25:27;;;;;;;0.30;0.30;;;23.70;54.30;;;;;;5051647;28;20045;-54
2021/06/07 05:27:56;;;;;;;0.30;0.30;;;23.70;54.30;;;;;;5037591;28;20068;-53
2021/06/07 05:30:25;;;;;;;0.22;0.22;;;23.70;54.20;;;;;;5048651;28;20523;-50
2021/06/07 05:32:54;;;;;;;0.30;0.30;;;23.70;54.10;;;;;;5044382;28;20051;-51
2021/06/07 05:35:24;;;;;;;0.40;0.40;;;23.80;54.10;;;;;;5037253;28;20057;-49
2021/06/07 05:37:51;;;;;;;0.30;0.30;;;23.80;54.10;;;;;;5047369;28;20052;-51
2021/06/07 05:40:20;;;;;;;0.20;0.20;;;23.80;54.00;;;;;;5059520;28;20497;-50
2021/06/07 05:42:48;;;;;;;0.20;0.20;;;23.90;54.00;;;;;;5037145;28;20046;-50
2021/06/07 05:45:17;;;;;;;0.22;0.22;;;23.90;53.90;;;;;;5038115;28;20045;-53
2021/06/07 05:47:46;;;;;;;0.35;0.35;;;23.90;53.90;;;;;;5043953;28;20041;-55
2021/06/07 05:50:16;;;;;;;0.47;0.30;;;23.90;53.90;;;;;;5053600;28;20051;-51
2021/06/07 05:52:47;;;;;;;0.75;0.40;;;24.00;53.90;;;;;;5052072;28;20115;-51
2021/06/07 05:55:18;;;;;;;0.30;0.30;;;24.00;53.90;;;;;;5052113;28;20095;-51
2021/06/07 05:57:50;;;;;;;0.40;0.30;;;24.00;53.80;;;;;;5050933;28;20123;-49
2021/06/07 06:00:20;;;;;;;1.88;0.38;;;24.00;53.80;;;;;;5052709;28;20045;-50
2021/06/07 06:02:48;;;;;;;0.20;0.20;;;24.00;53.80;;;;;;5050487;28;20041;-53
2021/06/07 06:05:16;;;;;;;0.30;0.30;;;24.00;53.80;;;;;;5039268;28;20068;-53
2021/06/07 06:07:45;;;;;;;0.35;0.30;;;24.00;53.80;;;;;;5039629;28;20432;-50
2021/06/07 06:10:13;;;;;;;0.20;0.20;;;24.00;53.80;;;;;;5052501;28;20049;-53
2021/06/07 06:12:42;;;;;;;0.32;0.25;;;24.00;53.80;;;;;;5054057;28;20091;-55
2021/06/07 06:15:11;;;;;;;0.30;0.30;;;24.00;53.80;;;;;;5052057;28;20130;-50
2021/06/07 06:17:39;;;;;;;0.43;0.20;;;24.00;53.80;;;;;;5052662;28;20048;-51
2021/06/07 06:20:08;;;;;;;0.38;0.22;;;24.00;53.80;;;;;;5051771;28;20110;-56
2021/06/07 06:22:37;;;;;;;0.30;0.30;;;24.00;53.90;;;;;;5033453;28;20510;-52
2021/06/07 06:25:08;;;;;;;0.30;0.30;;;24.00;53.80;;;;;;5052520;28;20102;-58
2021/06/07 06:27:36;;;;;;;0.20;0.20;;;24.00;53.80;;;;;;5053095;28;20049;-53
2021/06/07 06:30:17;;;;;;;0.38;0.30;;;24.00;53.90;;;;;;5037461;28;20100;-52
2021/06/07 06:32:46;;;;;;;0.28;0.25;;;24.00;53.90;;;;;;5053413;28;20083;-52
2021/06/07 06:35:13;;;;;;;0.32;0.30;;;24.00;53.80;;;;;;5051617;28;20045;-52
2021/06/07 06:37:43;;;;;;;0.30;0.30;;;24.00;53.80;;;;;;5035686;28;20120;-51
2021/06/07 06:40:17;;;;;;;0.57;0.30;;;24.00;53.80;;;;;;5067678;28;20099;-53
2021/06/07 06:42:45;;;;;;;0.40;0.40;;;24.00;53.80;;;;;;5053129;28;20069;-53
2021/06/07 06:45:13;;;;;;;0.20;0.20;;;24.00;53.90;;;;;;5039012;28;20053;-55
2021/06/07 06:47:41;;;;;;;0.30;0.30;;;24.00;53.80;;;;;;5050347;28;20128;-54
2021/06/07 06:50:09;;;;;;;0.43;0.20;;;24.00;53.90;;;;;;5053593;28;20492;-53
2021/06/07 06:52:37;;;;;;;0.43;0.28;;;24.00;53.80;;;;;;5051932;28;20519;-55
2021/06/07 06:55:07;;;;;;;0.30;0.30;;;24.00;53.80;;;;;;5053270;28;20045;-52
2021/06/07 06:57:34;;;;;;;0.32;0.25;;;24.00;53.80;;;;;;5050953;28;20037;-53
2021/06/07 07:00:05;;;;;;;0.22;0.22;;;24.00;53.80;;;;;;5050710;28;20102;-51
2021/06/07 07:02:32;;;;;;;0.20;0.20;;;24.00;53.80;;;;;;5045477;28;20077;-50
2021/06/07 07:04:59;;;;;;;0.30;0.30;;;24.00;53.90;;;;;;5043676;28;20131;-55
2021/06/07 07:07:27;;;;;;;0.40;0.30;;;24.00;53.80;;;;;;5042404;28;20049;-52
2021/06/07 07:09:54;;;;;;;0.38;0.25;;;23.90;53.80;;;;;;5045919;28;20460;-49
2021/06/07 07:12:24;;;;;;;0.30;0.30;;;24.00;53.80;;;;;;5040992;28;20069;-52
2021/06/07 07:14:52;;;;;;;0.40;0.30;;;24.00;53.80;;;;;;5048084;28;20076;-49
2021/06/07 07:17:19;;;;;;;0.55;0.40;;;24.00;53.80;;;;;;5039021;28;20076;-48
2021/06/07 07:19:47;;;;;;;0.32;0.30;;;24.00;53.80;;;;;;5063665;28;20049;-53
2021/06/07 07:22:15;;;;;;;0.20;0.20;;;24.00;53.80;;;;;;5036879;28;20068;-52
2021/06/07 07:24:45;;;;;;;0.30;0.30;;;24.00;53.80;;;;;;5036712;28;20080;-51
2021/06/07 07:27:17;;;;;;;0.22;0.20;;;24.00;53.80;;;;;;5051137;28;20516;-49
2021/06/07 07:29:45;;;;;;;0.20;0.20;;;24.00;53.80;;;;;;5035590;28;20049;-49
2021/06/07 07:32:13;;;;;;;0.47;0.30;;;24.00;53.80;;;;;;5036258;28;20041;-55
2021/06/07 07:34:41;;;;;;;0.68;0.38;;;24.00;53.80;;;;;;5035513;28;20128;-53
2021/06/07 07:37:10;;;;;;;0.20;0.20;;;24.00;53.80;;;;;;5035830;28;20077;-48
2021/06/07 07:39:38;;;;;;;0.40;0.30;;;24.00;53.70;;;;;;5035077;28;20552;-53
2021/06/07 07:42:06;;;;;;;0.30;0.28;;;24.00;53.80;;;;;;5051510;28;20124;-53
2021/06/07 07:44:34;;;;;;;0.30;0.30;;;24.00;53.70;;;;;;5052027;28;20045;-49
2021/06/07 07:47:05;;;;;;;1.02;0.30;;;24.00;53.70;;;;;;5051654;28;20382;-50
2021/06/07 07:49:32;;;;;;;0.22;0.22;;;24.00;53.70;;;;;;5051682;28;20113;-57
2021/06/07 07:52:01;;;;;;;0.20;0.20;;;24.00;53.80;;;;;;5052053;28;20099;-50
2021/06/07 07:54:28;;;;;;;0.20;0.20;;;24.00;53.80;;;;;;5051435;28;20057;-54
2021/06/07 07:56:55;;;;;;;0.82;0.30;;;24.10;53.90;;;;;;5051766;28;20110;-50
2021/06/07 07:59:22;;;;;;;0.35;0.30;;;24.00;53.70;;;;;;5051304;28;20094;-50
2021/06/07 08:01:50;;;;;;;0.47;0.40;;;24.10;53.70;;;;;;5040237;28;20068;-52
2021/06/07 08:04:18;;;;;;;0.22;0.22;;;24.10;53.70;;;;;;5044505;28;20559;-54
2021/06/07 08:06:45;;;;;;;1.85;0.40;;;24.10;53.80;;;;;;5041643;28;20096;-51
2021/06/07 08:09:12;;;;;;;0.63;0.30;;;24.10;53.80;;;;;;5043025;28;20045;-55
2021/06/07 08:11:39;;;;;;;0.30;0.28;;;24.00;53.70;;;;;;5032445;28;20132;-49
2021/06/07 08:14:07;;;;;;;0.30;0.20;;;24.10;53.90;;;;;;5041025;28;20049;-57
2021/06/07 08:16:34;;;;;;;1.85;0.40;;;24.10;53.90;;;;;;5051051;28;20055;-54
2021/06/07 08:19:01;;;;;;;0.45;0.30;;;24.10;53.80;;;;;;5062990;28;20045;-52
2021/06/07 08:21:28;;;;;;;0.50;0.30;;;24.10;53.90;;;;;;5034380;28;20128;-52
2021/06/07 08:23:56;;;;;;;0.32;0.30;;;24.00;53.90;;;;;;5037916;28;20041;-53
2021/06/07 08:26:23;;;;;;;0.50;0.35;;;24.00;54.00;;;;;;5051200;28;20072;-49
2021/06/07 08:28:50;;;;;;;0.55;0.40;;;24.10;54.20;;;;;;5052428;28;20041;-53
2021/06/07 08:31:17;;;;;;;0.70;0.47;;;24.00;54.30;;;;;;5052302;28;20123;-52
2021/06/07 08:33:44;;;;;;;0.45;0.43;;;24.10;54.50;;;;;;5037815;28;20417;-54
2021/06/07 08:36:12;;;;;;;0.55;0.50;;;24.10;54.50;;;;;;5036618;28;20103;-51
2021/06/07 08:38:41;;;;;;;1.23;0.30;;;24.10;54.40;;;;;;5054982;28;20152;-52
2021/06/07 08:41:10;;;;;;;2.17;0.38;;;24.10;54.50;;;;;;5052641;28;20044;-53
2021/06/07 08:43:37;;;;;;;0.70;0.50;;;24.10;54.60;;;;;;5053924;28;20128;-52
2021/06/07 08:46:20;;;;;;;4.13;0.60;;;24.10;54.70;;;;;;5036649;28;20053;-54
2021/06/07 08:48:48;;;;;;;0.85;0.57;;;24.10;54.80;;;;;;5054759;28;20049;-55
2021/06/07 08:51:15;;;;;;;0.68;0.55;;;24.10;54.90;;;;;;5052612;28;20049;-50
2021/06/07 08:53:42;;;;;;;0.68;0.47;;;24.00;54.70;;;;;;5054224;28;20088;-52
2021/06/07 08:56:09;;;;;;;1.27;0.60;;;24.00;54.70;;;;;;5039701;28;20505;-50
2021/06/07 08:58:37;;;;;;;0.45;0.45;;;24.10;54.90;;;;;;5050581;28;20049;-53
2021/06/07 09:01:04;;;;;;;0.70;0.55;;;24.00;55.20;;;;;;5054609;28;20045;-50
2021/06/07 09:03:33;;;;;;;0.80;0.57;;;24.10;55.30;;;;;;5042257;28;20042;-52
2021/06/07 09:06:03;;;;;;;3.58;0.75;;;24.00;55.10;;;;;;5044017;28;20049;-54
2021/06/07 09:08:36;;;;;;;1.15;0.50;;;24.10;55.50;;;;;;5048645;28;20049;-50
2021/06/07 09:11:13;;;;;;;0.95;0.68;;;24.00;55.40;;;;;;5054209;28;20049;-54
2021/06/07 09:13:41;;;;;;;1.77;0.50;;;24.10;55.50;;;;;;5055436;28;20071;-50
2021/06/07 09:16:10;;;;;;;3.17;0.68;;;24.10;55.70;;;;;;5054192;28;20124;-55
2021/06/07 09:18:41;;;;;;;1.08;0.75;;;24.10;55.50;;;;;;5068063;28;20049;-52
2021/06/07 09:21:22;;;;;;;1.25;0.85;;;24.10;55.70;;;;;;5070236;28;20040;-48
2021/06/07 09:23:56;;;;;;;3.15;0.80;;;24.10;55.70;;;;;;5045289;28;20124;-50
2021/06/07 09:26:38;;;;;;;1.15;0.80;;;24.10;55.60;;;;;;5048061;28;20049;-49
2021/06/07 09:29:30;;;;;;;1.20;0.68;;;24.10;55.70;;;;;;5054636;28;20048;-53
2021/06/07 09:31:58;;;;;;;2.58;0.70;;;24.10;55.60;;;;;;5053436;28;20072;-52
2021/06/07 09:34:29;;;;;;;0.82;0.80;;;24.10;55.70;;;;;;5052471;28;20060;-52
2021/06/07 09:37:05;;;;;;;0.80;0.70;;;24.10;55.70;;;;;;5053449;28;20052;-53
2021/06/07 09:39:34;;;;;;;1.55;0.60;;;24.10;55.80;;;;;;5053665;28;20090;-51
2021/06/07 09:42:10;;;;;;;0.68;0.68;;;24.10;55.70;;;;;;5052261;28;20488;-53
2021/06/07 09:44:49;;;;;;;1.67;1.00;;;24.10;55.70;;;;;;5053624;28;20072;-53
2021/06/07 09:47:24;;;;;;;1.08;0.90;;;24.20;55.70;;;;;;5054831;28;20492;-53
2021/06/07 09:49:53;;;;;;;1.23;0.73;;;24.20;55.80;;;;;;5067597;28;20049;-52
2021/06/07 09:52:22;;;;;;;1.08;0.98;;;24.20;56.30;;;;;;5053117;28;20044;-56
2021/06/07 09:55:14;;;;;;;1.00;0.77;;;24.20;56.00;;;;;;5053545;28;20059;-49
2021/06/07 09:58:07;;;;;;;2.40;1.08;;;24.20;56.20;;;;;;5067525;28;20049;-51
2021/06/07 10:00:48;;;;;;;1.50;1.17;;;24.20;56.30;;;;;;5047247;28;20075;-52
2021/06/07 10:03:23;;;;;;;4.68;1.20;;;24.20;56.40;;;;;;5053432;28;20098;-54
2021/06/07 10:05:54;;;;;;;3.22;0.82;;;24.20;56.50;;;;;;5048440;28;20117;-52
2021/06/07 10:08:26;;;;;;;1.40;0.90;;;24.20;56.20;;;;;;5047119;28;20045;-54
2021/06/07 10:10:56;;;;;;;2.08;1.00;;;24.20;56.10;;;;;;5035197;28;20049;-55
2021/06/07 10:13:23;;;;;;;5.35;1.65;;;24.20;56.30;;;;;;5053364;28;20052;-53
2021/06/07 10:15:51;;;;;;;1.40;1.10;;;24.30;56.60;;;;;;5038582;28;20437;-52
2021/06/07 10:18:21;;;;;;;2.88;2.38;;;24.30;56.80;;;;;;5037304;28;20049;-56
2021/06/07 10:20:51;;;;;;;4.40;2.00;;;24.20;56.90;;;;;;5050525;28;20084;-53
2021/06/07 10:23:26;;;;;;;3.97;2.42;;;24.30;57.60;;;;;;5038890;28;20132;-55
2021/06/07 10:25:56;;;;;;;3.47;2.17;;;24.30;58.00;;;;;;5050891;28;20048;-55
2021/06/07 10:28:27;;;;;;;2.58;2.00;;;24.30;57.50;;;;;;5049978;28;20049;-57
2021/06/07 10:30:56;;;;;;;2.83;1.70;;;24.30;57.90;;;;;;5051141;28;20045;-55
2021/06/07 10:33:29;;;;;;;3.05;1.80;;;24.30;57.40;;;;;;5052205;28;20077;-52
2021/06/07 10:36:17;;;;;;;4.07;2.40;;;24.30;57.40;;;;;;5051335;28;20130;-53
2021/06/07 10:38:45;;;;;;;2.65;1.88;;;24.30;57.40;;;;;;5054293;28;20041;-55
2021/06/07 10:41:30;;;;;;;2.83;1.67;;;24.30;57.00;;;;;;5051307;28;20489;-54
2021/06/07 10:43:59;;;;;;;3.67;1.58;;;24.30;56.90;;;;;;5051434;28;20095;-52
2021/06/07 10:46:37;;;;;;;5.78;2.80;;;24.30;57.00;;;;;;5051583;28;20048;-55
2021/06/07 10:52:59;;;;;;;5.35;4.22;;;24.40;58.00;;;;;;5041104;28;20052;-59
2021/06/07 10:59:19;;;;;;;9.02;4.75;;;24.40;60.10;;;;;;5035262;28;20039;-58
2021/06/07 11:02:14;;;;;;;7.63;4.13;;;24.40;60.30;;;;;;5047798;28;20115;-59
2021/06/07 11:04:42;;;;;;;5.82;3.80;;;24.50;59.40;;;;;;5047112;28;20056;-59
2021/06/07 11:07:19;;;;;;;6.95;3.80;;;24.50;58.40;;;;;;5034824;28;20049;-61
2021/06/07 11:10:14;;;;;;;6.97;4.45;;;24.50;58.30;;;;;;5034544;28;20061;-59
2021/06/07 11:12:41;;;;;;;5.20;3.90;;;24.60;58.70;;;;;;5049466;28;20064;-59
2021/06/07 11:15:20;;;;;;;5.13;3.45;;;24.60;57.80;;;;;;5030570;28;20505;-59
2021/06/07 11:17:49;;;;;;;7.07;4.82;;;24.60;56.00;;;;;;5048773;28;20080;-59
2021/06/07 11:20:31;;;;;;;6.63;4.05;;;24.70;56.10;;;;;;5029436;28;20081;-60
2021/06/07 11:23:29;;;;;;;7.80;4.63;;;24.70;56.90;;;;;;5041889;28;20456;-58
2021/06/07 11:25:56;;;;;;;5.90;4.25;;;24.70;57.50;;;;;;5043284;28;20041;-59
2021/06/07 11:28:44;;;;;;;5.05;3.80;;;24.80;57.40;;;;;;5034092;28;20127;-59
2021/06/07 11:31:15;;;;;;;8.10;4.03;;;24.80;57.00;;;;;;5033477;28;20048;-59
2021/06/07 11:33:53;;;;;;;10.05;4.35;;;24.80;55.70;;;;;;5041656;28;20048;-59
2021/06/07 11:36:40;;;;;;;6.20;4.82;;;24.80;55.90;;;;;;5033631;28;20516;-59
2021/06/07 11:39:28;;;;;;;10.05;4.63;;;24.80;56.10;;;;;;5035514;28;20045;-58
2021/06/07 11:41:59;;;;;;;4.90;3.60;;;24.90;56.50;;;;;;5039416;28;20049;-58
2021/06/07 11:44:50;;;;;;;6.35;3.70;;;24.90;55.80;;;;;;5042787;28;20037;-55
2021/06/07 11:47:25;;;;;;;6.75;3.75;;;24.90;56.00;;;;;;5037397;28;20046;-57
2021/06/07 11:49:56;;;;;;;10.45;4.47;;;24.90;55.30;;;;;;5042870;28;20049;-58
2021/06/07 11:52:32;;;;;;;6.35;3.80;;;24.90;54.90;;;;;;5049820;28;20072;-57
2021/06/07 11:55:28;;;;;;;10.63;4.05;;;24.90;53.80;;;;;;5049647;28;20049;-56
2021/06/07 11:58:18;;;;;;;8.90;3.72;;;24.90;50.70;;;;;;5033580;28;20118;-58
2021/06/07 12:00:52;;;;;;;3.70;3.08;;;24.90;50.10;;;;;;5045588;28;20059;-59
2021/06/07 12:03:21;;;;;;;;;;;24.90;47.50;;;;;;5035930;28;20041;-58
2021/06/07 12:05:49;;;;;;;10.73;3.58;;;25.00;48.50;;;;;;5059031;28;19974;-59
2021/06/07 12:08:19;;;;;;;7.38;3.22;;;25.00;48.90;;;;;;5051578;28;20044;-58
2021/06/07 12:10:58;;;;;;;4.32;3.22;;;25.00;49.00;;;;;;5053394;28;20049;-59
2021/06/07 12:13:45;;;;;;;4.68;3.33;;;25.00;48.50;;;;;;5051473;28;20053;-58
2021/06/07 12:16:15;;;;;;;3.65;3.13;;;25.00;47.60;;;;;;5053208;28;20131;-57
2021/06/07 12:18:45;;;;;;;4.97;3.53;;;25.00;47.70;;;;;;5038418;28;20079;-59
2021/06/07 12:21:24;;;;;;;5.43;3.22;;;25.00;46.70;;;;;;5051046;28;20049;-59
2021/06/07 12:24:05;;;;;;;3.92;2.83;;;25.00;47.30;;;;;;5036587;28;20457;-58
2021/06/07 12:29:29;;;;;;;4.90;3.00;;;25.00;45.10;;;;;;5051992;28;20527;-52
2021/06/07 12:32:16;;;;;;;3.70;2.85;;;25.10;45.30;;;;;;5053238;28;20131;-58
2021/06/07 12:35:15;;;;;;;3.58;3.03;;;25.10;45.90;;;;;;5033489;28;20132;-58
2021/06/07 12:37:48;;;;;;;5.82;2.90;;;25.10;45.40;;;;;;5044854;28;20128;-59
2021/06/07 12:40:23;;;;;;;24.05;3.28;;;25.10;45.20;;;;;;5053706;28;20045;-59
2021/06/07 12:43:17;;;;;;;4.55;2.92;;;25.10;45.20;;;;;;5037319;28;20076;-53
2021/06/07 12:45:48;;;;;;;5.93;3.20;;;25.10;44.70;;;;;;5052957;28;20052;-60
2021/06/07 12:48:22;;;;;;;5.82;2.83;;;25.20;45.30;;;;;;5051471;28;20040;-57
2021/06/07 12:50:49;;;;;;;5.40;3.08;;;25.20;45.10;;;;;;5040722;28;20161;-59
2021/06/07 12:53:18;;;;;;;7.35;3.35;;;25.20;45.40;;;;;;5051060;28;20091;-59
2021/06/07 12:55:46;;;;;;;4.70;3.42;;;25.20;46.60;;;;;;5050906;28;20091;-54
2021/06/07 12:58:23;;;;;;;5.38;3.17;;;25.20;47.40;;;;;;5036436;28;20106;-59
2021/06/07 13:00:58;;;;;;;8.32;3.63;;;25.20;47.60;;;;;;5048225;28;20041;-58
2021/06/07 13:03:30;;;;;;;6.70;3.45;;;25.30;48.10;;;;;;5048043;28;20045;-57
2021/06/07 13:06:09;;;;;;;5.20;3.55;;;25.30;48.10;;;;;;5035311;28;20128;-59
2021/06/07 13:08:52;;;;;;;4.10;2.90;;;25.30;48.40;;;;;;5042066;28;20072;-57
2021/06/07 13:11:20;;;;;;;5.00;3.20;;;25.30;48.20;;;;;;5048022;28;20045;-57
2021/06/07 13:13:50;;;;;;;5.10;3.55;;;25.30;48.30;;;;;;5049834;28;20139;-59
2021/06/07 13:16:32;;;;;;;7.95;4.03;;;25.30;50.10;;;;;;5036345;28;20044;-58
2021/06/07 13:19:06;;;;;;;5.22;3.88;;;25.30;51.10;;;;;;5033707;28;20051;-58